sensor_id;sensor_type;location;lat;lon;timestamp;temperature;humidity
11840;DHT22;5979;50.800;4.904;2023-08-06T00:00:26;16.30;99.90
11840;DHT22;5979;50.800;4.904;2023-08-06T00:02:52;16.20;99.90
11840;DHT22;5979;50.800;4.904;2023-08-06T00:05:18;16.30;99.90
11840;DHT22;5979;50.800;4.904;2023-08-06T00:07:49;16.30;99.90
11840;DHT22;5979;50.800;4.904;2023-08-06T00:10:15;16.30;99.90
11840;DHT22;5979;50.800;4.904;2023-08-06T00:12:40;16.30;99.90
11840;DHT22;5979;50.800;4.904;2023-08-06T00:15:06;16.30;99.90
11840;DHT22;5979;50.800;4.904;2023-08-06T00:17:34;16.30;99.90
11840;DHT22;5979;50.800;4.904;2023-08-06T00:20:00;16.30;99.90
11840;DHT22;5979;50.800;4.904;2023-08-06T00:22:34;16.30;99.90
11840;DHT22;5979;50.800;4.904;2023-08-06T00:25:00;16.30;99.90
11840;DHT22;5979;50.800;4.904;2023-08-06T00:27:26;16.40;99.90
11840;DHT22;5979;50.800;4.904;2023-08-06T00:29:52;16.40;99.90
11840;DHT22;5979;50.800;4.904;2023-08-06T00:32:18;16.40;99.90
11840;DHT22;5979;50.800;4.904;2023-08-06T00:34:43;16.40;99.90
11840;DHT22;5979;50.800;4.904;2023-08-06T00:37:09;16.40;99.90
11840;DHT22;5979;50.800;4.904;2023-08-06T00:39:35;16.40;99.90
11840;DHT22;5979;50.800;4.904;2023-08-06T00:42:00;16.40;99.90
11840;DHT22;5979;50.800;4.904;2023-08-06T00:44:26;16.40;99.90
11840;DHT22;5979;50.800;4.904;2023-08-06T00:46:52;16.40;99.90
11840;DHT22;5979;50.800;4.904;2023-08-06T00:49:18;16.40;99.90
11840;DHT22;5979;50.800;4.904;2023-08-06T00:51:44;16.40;99.90
11840;DHT22;5979;50.800;4.904;2023-08-06T00:54:10;16.40;99.90
11840;DHT22;5979;50.800;4.904;2023-08-06T00:56:37;16.40;99.90
11840;DHT22;5979;50.800;4.904;2023-08-06T00:59:04;16.40;99.90
11840;DHT22;5979;50.800;4.904;2023-08-06T01:01:30;16.40;99.90
11840;DHT22;5979;50.800;4.904;2023-08-06T01:03:56;16.40;99.90
11840;DHT22;5979;50.800;4.904;2023-08-06T01:06:52;16.40;99.90
11840;DHT22;5979;50.800;4.904;2023-08-06T01:09:50;16.40;99.90
11840;DHT22;5979;50.800;4.904;2023-08-06T01:12:45;16.40;99.90
11840;DHT22;5979;50.800;4.904;2023-08-06T01:15:26;16.40;99.90
11840;DHT22;5979;50.800;4.904;2023-08-06T01:17:53;16.40;99.90
11840;DHT22;5979;50.800;4.904;2023-08-06T01:20:19;16.40;99.90
11840;DHT22;5979;50.800;4.904;2023-08-06T01:22:45;16.40;99.90
11840;DHT22;5979;50.800;4.904;2023-08-06T01:25:11;16.40;99.90
11840;DHT22;5979;50.800;4.904;2023-08-06T01:27:48;16.40;99.90
11840;DHT22;5979;50.800;4.904;2023-08-06T01:30:29;16.40;99.90
11840;DHT22;5979;50.800;4.904;2023-08-06T01:33:00;16.40;99.90
11840;DHT22;5979;50.800;4.904;2023-08-06T01:35:30;16.40;99.90
11840;DHT22;5979;50.800;4.904;2023-08-06T01:37:56;16.40;99.90
11840;DHT22;5979;50.800;4.904;2023-08-06T01:40:22;16.40;99.90
11840;DHT22;5979;50.800;4.904;2023-08-06T01:42:47;16.40;99.90
11840;DHT22;5979;50.800;4.904;2023-08-06T01:45:13;16.40;99.90
11840;DHT22;5979;50.800;4.904;2023-08-06T01:47:39;16.40;99.90
11840;DHT22;5979;50.800;4.904;2023-08-06T01:50:05;16.40;99.90
11840;DHT22;5979;50.800;4.904;2023-08-06T01:52:31;16.40;99.90
11840;DHT22;5979;50.800;4.904;2023-08-06T01:54:56;16.40;99.90
11840;DHT22;5979;50.800;4.904;2023-08-06T01:57:22;16.40;99.90
11840;DHT22;5979;50.800;4.904;2023-08-06T01:59:48;16.40;99.90
11840;DHT22;5979;50.800;4.904;2023-08-06T02:02:13;16.40;99.90
11840;DHT22;5979;50.800;4.904;2023-08-06T02:04:39;16.40;99.90
11840;DHT22;5979;50.800;4.904;2023-08-06T02:07:05;16.40;99.90
11840;DHT22;5979;50.800;4.904;2023-08-06T02:09:30;16.40;99.90
11840;DHT22;5979;50.800;4.904;2023-08-06T02:11:56;16.40;99.90
11840;DHT22;5979;50.800;4.904;2023-08-06T02:14:22;16.40;99.90
11840;DHT22;5979;50.800;4.904;2023-08-06T02:16:47;16.40;99.90
11840;DHT22;5979;50.800;4.904;2023-08-06T02:19:13;16.40;99.90
11840;DHT22;5979;50.800;4.904;2023-08-06T02:21:38;16.40;99.90
11840;DHT22;5979;50.800;4.904;2023-08-06T02:24:04;16.30;99.90
11840;DHT22;5979;50.800;4.904;2023-08-06T02:26:30;16.30;99.90
11840;DHT22;5979;50.800;4.904;2023-08-06T02:28:55;16.30;99.90
11840;DHT22;5979;50.800;4.904;2023-08-06T02:31:21;16.30;99.90
11840;DHT22;5979;50.800;4.904;2023-08-06T02:33:47;16.30;99.90
11840;DHT22;5979;50.800;4.904;2023-08-06T02:36:12;16.30;99.90
11840;DHT22;5979;50.800;4.904;2023-08-06T02:38:38;16.30;99.90
11840;DHT22;5979;50.800;4.904;2023-08-06T02:41:04;16.20;99.90
11840;DHT22;5979;50.800;4.904;2023-08-06T02:43:29;16.20;99.90
11840;DHT22;5979;50.800;4.904;2023-08-06T02:45:59;16.20;99.90
11840;DHT22;5979;50.800;4.904;2023-08-06T02:48:25;16.20;99.90
11840;DHT22;5979;50.800;4.904;2023-08-06T02:50:51;16.20;99.90
11840;DHT22;5979;50.800;4.904;2023-08-06T02:53:16;16.20;99.90
11840;DHT22;5979;50.800;4.904;2023-08-06T02:55:48;16.20;99.90
11840;DHT22;5979;50.800;4.904;2023-08-06T02:58:15;16.20;99.90
11840;DHT22;5979;50.800;4.904;2023-08-06T03:00:41;16.20;99.90
11840;DHT22;5979;50.800;4.904;2023-08-06T03:03:06;16.20;99.90
11840;DHT22;5979;50.800;4.904;2023-08-06T03:05:32;16.20;99.90
11840;DHT22;5979;50.800;4.904;2023-08-06T03:07:58;16.20;99.90
11840;DHT22;5979;50.800;4.904;2023-08-06T03:10:23;16.20;99.90
11840;DHT22;5979;50.800;4.904;2023-08-06T03:12:49;16.20;99.90
11840;DHT22;5979;50.800;4.904;2023-08-06T03:15:14;16.20;99.90
11840;DHT22;5979;50.800;4.904;2023-08-06T03:17:40;16.10;99.90
11840;DHT22;5979;50.800;4.904;2023-08-06T03:20:06;16.10;99.90
11840;DHT22;5979;50.800;4.904;2023-08-06T03:22:32;16.10;99.90
11840;DHT22;5979;50.800;4.904;2023-08-06T03:24:57;16.10;99.90
11840;DHT22;5979;50.800;4.904;2023-08-06T03:27:23;16.10;99.90
11840;DHT22;5979;50.800;4.904;2023-08-06T03:29:49;16.10;99.90
11840;DHT22;5979;50.800;4.904;2023-08-06T03:32:18;16.10;99.90
11840;DHT22;5979;50.800;4.904;2023-08-06T03:34:43;16.10;99.90
11840;DHT22;5979;50.800;4.904;2023-08-06T03:37:09;16.10;99.90
11840;DHT22;5979;50.800;4.904;2023-08-06T03:39:35;16.00;99.90
11840;DHT22;5979;50.800;4.904;2023-08-06T03:42:00;16.10;99.90
11840;DHT22;5979;50.800;4.904;2023-08-06T03:44:26;16.00;99.90
11840;DHT22;5979;50.800;4.904;2023-08-06T03:46:53;16.10;99.90
11840;DHT22;5979;50.800;4.904;2023-08-06T03:49:19;16.00;99.90
11840;DHT22;5979;50.800;4.904;2023-08-06T03:51:45;16.00;99.90
11840;DHT22;5979;50.800;4.904;2023-08-06T03:54:12;15.90;99.90
11840;DHT22;5979;50.800;4.904;2023-08-06T03:56:37;15.80;99.90
11840;DHT22;5979;50.800;4.904;2023-08-06T03:59:04;15.80;99.90
11840;DHT22;5979;50.800;4.904;2023-08-06T04:01:30;15.80;99.90
11840;DHT22;5979;50.800;4.904;2023-08-06T04:03:55;15.80;99.90
11840;DHT22;5979;50.800;4.904;2023-08-06T04:06:21;15.80;99.90
11840;DHT22;5979;50.800;4.904;2023-08-06T04:08:46;15.80;99.90
11840;DHT22;5979;50.800;4.904;2023-08-06T04:11:12;15.80;99.90
11840;DHT22;5979;50.800;4.904;2023-08-06T04:13:41;15.80;99.90
11840;DHT22;5979;50.800;4.904;2023-08-06T04:16:07;15.80;99.90
11840;DHT22;5979;50.800;4.904;2023-08-06T04:18:32;15.80;99.90
11840;DHT22;5979;50.800;4.904;2023-08-06T04:20:58;15.80;99.90
11840;DHT22;5979;50.800;4.904;2023-08-06T04:23:24;15.80;99.90
11840;DHT22;5979;50.800;4.904;2023-08-06T04:25:50;15.70;99.90
11840;DHT22;5979;50.800;4.904;2023-08-06T04:28:15;15.70;99.90
11840;DHT22;5979;50.800;4.904;2023-08-06T04:30:41;15.70;99.90
11840;DHT22;5979;50.800;4.904;2023-08-06T04:33:07;15.70;99.90
11840;DHT22;5979;50.800;4.904;2023-08-06T04:35:32;15.70;99.90
11840;DHT22;5979;50.800;4.904;2023-08-06T04:37:58;15.70;99.90
11840;DHT22;5979;50.800;4.904;2023-08-06T04:40:24;15.70;99.90
11840;DHT22;5979;50.800;4.904;2023-08-06T04:42:49;15.70;99.90
11840;DHT22;5979;50.800;4.904;2023-08-06T04:45:15;15.70;99.90
11840;DHT22;5979;50.800;4.904;2023-08-06T04:47:41;15.70;99.90
11840;DHT22;5979;50.800;4.904;2023-08-06T04:50:07;15.70;99.90
11840;DHT22;5979;50.800;4.904;2023-08-06T04:52:32;15.80;99.90
11840;DHT22;5979;50.800;4.904;2023-08-06T04:54:58;15.70;99.90
11840;DHT22;5979;50.800;4.904;2023-08-06T04:57:24;15.70;99.90
11840;DHT22;5979;50.800;4.904;2023-08-06T04:59:49;15.70;99.90
11840;DHT22;5979;50.800;4.904;2023-08-06T05:02:15;15.70;99.90
11840;DHT22;5979;50.800;4.904;2023-08-06T05:04:41;15.80;99.90
11840;DHT22;5979;50.800;4.904;2023-08-06T05:07:06;15.80;99.90
11840;DHT22;5979;50.800;4.904;2023-08-06T05:09:32;15.80;99.90
11840;DHT22;5979;50.800;4.904;2023-08-06T05:12:00;15.80;99.90
11840;DHT22;5979;50.800;4.904;2023-08-06T05:14:26;15.70;99.90
11840;DHT22;5979;50.800;4.904;2023-08-06T05:16:52;15.60;99.90
11840;DHT22;5979;50.800;4.904;2023-08-06T05:19:18;15.50;99.90
11840;DHT22;5979;50.800;4.904;2023-08-06T05:21:43;15.50;99.90
11840;DHT22;5979;50.800;4.904;2023-08-06T05:24:09;15.30;99.90
11840;DHT22;5979;50.800;4.904;2023-08-06T05:26:35;15.20;99.90
11840;DHT22;5979;50.800;4.904;2023-08-06T05:29:00;15.10;99.90
11840;DHT22;5979;50.800;4.904;2023-08-06T05:31:26;15.00;99.90
11840;DHT22;5979;50.800;4.904;2023-08-06T05:33:54;14.90;99.90
11840;DHT22;5979;50.800;4.904;2023-08-06T05:36:19;14.80;99.90
11840;DHT22;5979;50.800;4.904;2023-08-06T05:38:46;14.70;99.90
11840;DHT22;5979;50.800;4.904;2023-08-06T05:41:12;14.60;99.90
11840;DHT22;5979;50.800;4.904;2023-08-06T05:43:38;14.50;99.90
11840;DHT22;5979;50.800;4.904;2023-08-06T05:46:03;14.50;99.90
11840;DHT22;5979;50.800;4.904;2023-08-06T05:48:29;14.40;99.90
11840;DHT22;5979;50.800;4.904;2023-08-06T05:50:55;14.40;99.90
11840;DHT22;5979;50.800;4.904;2023-08-06T05:53:20;14.40;99.90
11840;DHT22;5979;50.800;4.904;2023-08-06T05:55:47;14.30;99.90
11840;DHT22;5979;50.800;4.904;2023-08-06T05:58:13;14.30;99.90
11840;DHT22;5979;50.800;4.904;2023-08-06T06:00:39;14.40;99.90
11840;DHT22;5979;50.800;4.904;2023-08-06T06:03:04;14.40;99.90
11840;DHT22;5979;50.800;4.904;2023-08-06T06:05:30;14.40;99.90
11840;DHT22;5979;50.800;4.904;2023-08-06T06:07:55;14.40;99.90
11840;DHT22;5979;50.800;4.904;2023-08-06T06:10:21;14.40;99.90
11840;DHT22;5979;50.800;4.904;2023-08-06T06:12:47;14.40;99.90
11840;DHT22;5979;50.800;4.904;2023-08-06T06:15:12;14.40;99.90
11840;DHT22;5979;50.800;4.904;2023-08-06T06:17:38;14.50;99.90
11840;DHT22;5979;50.800;4.904;2023-08-06T06:20:04;14.50;99.90
11840;DHT22;5979;50.800;4.904;2023-08-06T06:22:30;14.40;99.90
11840;DHT22;5979;50.800;4.904;2023-08-06T06:24:56;14.40;99.90
11840;DHT22;5979;50.800;4.904;2023-08-06T06:27:22;14.40;99.90
11840;DHT22;5979;50.800;4.904;2023-08-06T06:29:47;14.40;99.90
11840;DHT22;5979;50.800;4.904;2023-08-06T06:32:13;14.40;99.90
11840;DHT22;5979;50.800;4.904;2023-08-06T06:34:39;14.40;99.90
11840;DHT22;5979;50.800;4.904;2023-08-06T06:37:05;14.40;99.90
11840;DHT22;5979;50.800;4.904;2023-08-06T06:39:30;14.40;99.90
11840;DHT22;5979;50.800;4.904;2023-08-06T06:41:56;14.40;99.90
11840;DHT22;5979;50.800;4.904;2023-08-06T06:44:22;14.50;99.90
11840;DHT22;5979;50.800;4.904;2023-08-06T06:46:47;14.50;99.90
11840;DHT22;5979;50.800;4.904;2023-08-06T06:49:13;14.50;99.90
11840;DHT22;5979;50.800;4.904;2023-08-06T06:51:39;14.60;99.90
11840;DHT22;5979;50.800;4.904;2023-08-06T06:54:04;14.60;99.90
11840;DHT22;5979;50.800;4.904;2023-08-06T06:56:30;14.60;99.90
11840;DHT22;5979;50.800;4.904;2023-08-06T06:58:56;14.60;99.90
11840;DHT22;5979;50.800;4.904;2023-08-06T07:01:21;14.60;99.90
11840;DHT22;5979;50.800;4.904;2023-08-06T07:03:47;14.60;99.90
11840;DHT22;5979;50.800;4.904;2023-08-06T07:06:13;14.60;99.90
11840;DHT22;5979;50.800;4.904;2023-08-06T07:08:38;14.60;99.90
11840;DHT22;5979;50.800;4.904;2023-08-06T07:11:05;14.60;99.90
11840;DHT22;5979;50.800;4.904;2023-08-06T07:13:32;14.60;99.90
11840;DHT22;5979;50.800;4.904;2023-08-06T07:15:58;14.60;99.90
11840;DHT22;5979;50.800;4.904;2023-08-06T07:18:24;14.60;99.90
11840;DHT22;5979;50.800;4.904;2023-08-06T07:20:54;14.70;99.90
11840;DHT22;5979;50.800;4.904;2023-08-06T07:23:21;14.60;99.90
11840;DHT22;5979;50.800;4.904;2023-08-06T07:25:47;14.60;99.90
11840;DHT22;5979;50.800;4.904;2023-08-06T07:28:13;14.70;99.90
11840;DHT22;5979;50.800;4.904;2023-08-06T07:30:40;14.70;99.90
11840;DHT22;5979;50.800;4.904;2023-08-06T07:33:06;14.80;99.90
11840;DHT22;5979;50.800;4.904;2023-08-06T07:35:32;14.90;99.90
11840;DHT22;5979;50.800;4.904;2023-08-06T07:37:58;14.90;99.90
11840;DHT22;5979;50.800;4.904;2023-08-06T07:40:24;15.00;99.90
11840;DHT22;5979;50.800;4.904;2023-08-06T07:42:49;15.10;99.90
11840;DHT22;5979;50.800;4.904;2023-08-06T07:45:15;15.10;99.90
11840;DHT22;5979;50.800;4.904;2023-08-06T07:47:41;15.20;99.90
11840;DHT22;5979;50.800;4.904;2023-08-06T07:50:08;15.20;99.90
11840;DHT22;5979;50.800;4.904;2023-08-06T07:52:34;15.20;99.90
11840;DHT22;5979;50.800;4.904;2023-08-06T07:55:00;15.30;99.90
11840;DHT22;5979;50.800;4.904;2023-08-06T07:57:27;15.30;99.90
11840;DHT22;5979;50.800;4.904;2023-08-06T07:59:52;15.30;99.90
11840;DHT22;5979;50.800;4.904;2023-08-06T08:02:19;15.30;99.90
11840;DHT22;5979;50.800;4.904;2023-08-06T08:04:45;15.40;99.90
11840;DHT22;5979;50.800;4.904;2023-08-06T08:07:13;15.40;99.90
11840;DHT22;5979;50.800;4.904;2023-08-06T08:09:38;15.50;99.90
11840;DHT22;5979;50.800;4.904;2023-08-06T08:12:04;15.50;99.90
11840;DHT22;5979;50.800;4.904;2023-08-06T08:14:30;15.40;99.90
11840;DHT22;5979;50.800;4.904;2023-08-06T08:17:01;15.40;99.90
11840;DHT22;5979;50.800;4.904;2023-08-06T08:19:28;15.40;99.90
11840;DHT22;5979;50.800;4.904;2023-08-06T08:21:54;15.30;99.90
11840;DHT22;5979;50.800;4.904;2023-08-06T08:24:20;15.20;99.90
11840;DHT22;5979;50.800;4.904;2023-08-06T08:26:49;15.20;99.90
11840;DHT22;5979;50.800;4.904;2023-08-06T08:29:15;15.20;99.90
11840;DHT22;5979;50.800;4.904;2023-08-06T08:31:40;15.30;99.90
11840;DHT22;5979;50.800;4.904;2023-08-06T08:34:06;15.50;99.90
11840;DHT22;5979;50.800;4.904;2023-08-06T08:36:32;15.60;99.90
11840;DHT22;5979;50.800;4.904;2023-08-06T08:38:57;15.80;99.90
11840;DHT22;5979;50.800;4.904;2023-08-06T08:41:23;15.90;99.90
11840;DHT22;5979;50.800;4.904;2023-08-06T08:43:50;16.00;99.90
11840;DHT22;5979;50.800;4.904;2023-08-06T08:46:18;16.10;99.90
11840;DHT22;5979;50.800;4.904;2023-08-06T08:48:44;16.20;99.90
11840;DHT22;5979;50.800;4.904;2023-08-06T08:51:11;16.20;99.90
11840;DHT22;5979;50.800;4.904;2023-08-06T08:53:39;16.30;99.90
11840;DHT22;5979;50.800;4.904;2023-08-06T08:56:05;16.30;99.90
11840;DHT22;5979;50.800;4.904;2023-08-06T08:58:31;16.40;99.90
11840;DHT22;5979;50.800;4.904;2023-08-06T09:00:58;16.30;99.90
11840;DHT22;5979;50.800;4.904;2023-08-06T09:03:23;16.20;99.90
11840;DHT22;5979;50.800;4.904;2023-08-06T09:05:53;16.10;99.90
11840;DHT22;5979;50.800;4.904;2023-08-06T09:08:25;16.00;99.90
11840;DHT22;5979;50.800;4.904;2023-08-06T09:10:52;16.00;99.90
11840;DHT22;5979;50.800;4.904;2023-08-06T09:13:20;15.90;99.90
11840;DHT22;5979;50.800;4.904;2023-08-06T09:15:46;15.90;99.90
11840;DHT22;5979;50.800;4.904;2023-08-06T09:18:12;15.90;99.90
11840;DHT22;5979;50.800;4.904;2023-08-06T09:20:40;16.00;99.90
11840;DHT22;5979;50.800;4.904;2023-08-06T09:23:10;16.10;99.90
11840;DHT22;5979;50.800;4.904;2023-08-06T09:25:39;16.20;99.90
11840;DHT22;5979;50.800;4.904;2023-08-06T09:28:06;16.30;99.90
11840;DHT22;5979;50.800;4.904;2023-08-06T09:30:35;16.40;99.90
11840;DHT22;5979;50.800;4.904;2023-08-06T09:33:01;16.40;99.90
11840;DHT22;5979;50.800;4.904;2023-08-06T09:35:31;16.40;99.90
11840;DHT22;5979;50.800;4.904;2023-08-06T09:38:10;16.40;99.90
11840;DHT22;5979;50.800;4.904;2023-08-06T09:40:37;16.40;99.90
11840;DHT22;5979;50.800;4.904;2023-08-06T09:43:03;16.40;99.90
11840;DHT22;5979;50.800;4.904;2023-08-06T09:45:37;16.30;99.90
11840;DHT22;5979;50.800;4.904;2023-08-06T09:48:08;16.20;99.90
11840;DHT22;5979;50.800;4.904;2023-08-06T09:50:35;16.20;99.90
11840;DHT22;5979;50.800;4.904;2023-08-06T09:53:03;16.10;99.90
11840;DHT22;5979;50.800;4.904;2023-08-06T09:55:29;16.10;99.90
11840;DHT22;5979;50.800;4.904;2023-08-06T09:57:55;16.00;99.90
11840;DHT22;5979;50.800;4.904;2023-08-06T10:00:22;16.00;99.90
11840;DHT22;5979;50.800;4.904;2023-08-06T10:02:52;15.90;99.90
11840;DHT22;5979;50.800;4.904;2023-08-06T10:05:21;15.80;99.90
11840;DHT22;5979;50.800;4.904;2023-08-06T10:07:49;15.80;99.90
11840;DHT22;5979;50.800;4.904;2023-08-06T10:10:16;15.70;99.90
11840;DHT22;5979;50.800;4.904;2023-08-06T10:12:49;15.80;99.90
11840;DHT22;5979;50.800;4.904;2023-08-06T10:15:20;15.90;99.90
11840;DHT22;5979;50.800;4.904;2023-08-06T10:17:49;16.00;99.90
11840;DHT22;5979;50.800;4.904;2023-08-06T10:20:16;16.00;99.90
11840;DHT22;5979;50.800;4.904;2023-08-06T10:22:43;16.10;99.90
11840;DHT22;5979;50.800;4.904;2023-08-06T10:25:16;16.10;99.90
11840;DHT22;5979;50.800;4.904;2023-08-06T10:27:53;16.00;99.90
11840;DHT22;5979;50.800;4.904;2023-08-06T10:32:52;16.00;99.90
11840;DHT22;5979;50.800;4.904;2023-08-06T10:35:48;15.90;99.90
11840;DHT22;5979;50.800;4.904;2023-08-06T10:38:24;15.80;99.90
11840;DHT22;5979;50.800;4.904;2023-08-06T10:43:33;15.70;99.90
11840;DHT22;5979;50.800;4.904;2023-08-06T10:46:02;15.70;99.90
11840;DHT22;5979;50.800;4.904;2023-08-06T10:48:38;15.70;99.90
11840;DHT22;5979;50.800;4.904;2023-08-06T10:51:10;15.70;99.90
11840;DHT22;5979;50.800;4.904;2023-08-06T10:53:36;15.70;99.90
11840;DHT22;5979;50.800;4.904;2023-08-06T10:56:15;15.70;99.90
11840;DHT22;5979;50.800;4.904;2023-08-06T10:58:41;15.60;99.90
11840;DHT22;5979;50.800;4.904;2023-08-06T11:01:07;15.60;99.90
11840;DHT22;5979;50.800;4.904;2023-08-06T11:03:34;15.60;99.90
11840;DHT22;5979;50.800;4.904;2023-08-06T11:06:00;15.70;99.90
11840;DHT22;5979;50.800;4.904;2023-08-06T11:08:27;15.70;99.90
11840;DHT22;5979;50.800;4.904;2023-08-06T11:10:53;15.70;99.90
11840;DHT22;5979;50.800;4.904;2023-08-06T11:13:20;15.60;99.90
11840;DHT22;5979;50.800;4.904;2023-08-06T11:15:46;15.50;99.90
11840;DHT22;5979;50.800;4.904;2023-08-06T11:18:12;15.40;99.90
11840;DHT22;5979;50.800;4.904;2023-08-06T11:20:39;15.40;99.90
11840;DHT22;5979;50.800;4.904;2023-08-06T11:23:05;15.40;99.90
11840;DHT22;5979;50.800;4.904;2023-08-06T11:25:34;15.50;99.90
11840;DHT22;5979;50.800;4.904;2023-08-06T11:28:01;15.50;99.90
11840;DHT22;5979;50.800;4.904;2023-08-06T11:30:27;15.50;99.90
11840;DHT22;5979;50.800;4.904;2023-08-06T11:32:52;15.50;99.90
11840;DHT22;5979;50.800;4.904;2023-08-06T11:35:18;15.40;99.90
11840;DHT22;5979;50.800;4.904;2023-08-06T11:37:45;15.50;99.90
11840;DHT22;5979;50.800;4.904;2023-08-06T11:40:11;15.50;99.90
11840;DHT22;5979;50.800;4.904;2023-08-06T11:42:38;15.40;99.90
11840;DHT22;5979;50.800;4.904;2023-08-06T11:45:04;15.40;99.90
11840;DHT22;5979;50.800;4.904;2023-08-06T11:47:30;15.40;99.90
11840;DHT22;5979;50.800;4.904;2023-08-06T11:49:56;15.50;99.90
11840;DHT22;5979;50.800;4.904;2023-08-06T11:52:25;15.50;99.90
11840;DHT22;5979;50.800;4.904;2023-08-06T11:55:05;15.70;99.90
11840;DHT22;5979;50.800;4.904;2023-08-06T11:57:38;15.70;99.90
11840;DHT22;5979;50.800;4.904;2023-08-06T12:00:10;15.80;99.90
11840;DHT22;5979;50.800;4.904;2023-08-06T12:02:38;15.90;99.90
11840;DHT22;5979;50.800;4.904;2023-08-06T12:05:18;16.00;99.90
11840;DHT22;5979;50.800;4.904;2023-08-06T12:07:47;16.00;99.90
11840;DHT22;5979;50.800;4.904;2023-08-06T12:10:15;16.00;99.90
11840;DHT22;5979;50.800;4.904;2023-08-06T12:12:41;16.00;99.90
11840;DHT22;5979;50.800;4.904;2023-08-06T12:15:07;15.90;99.90
11840;DHT22;5979;50.800;4.904;2023-08-06T12:17:34;15.80;99.90
11840;DHT22;5979;50.800;4.904;2023-08-06T12:20:00;15.70;99.90
11840;DHT22;5979;50.800;4.904;2023-08-06T12:22:26;15.60;99.90
11840;DHT22;5979;50.800;4.904;2023-08-06T12:24:52;15.50;99.90
11840;DHT22;5979;50.800;4.904;2023-08-06T12:27:17;15.60;99.90
11840;DHT22;5979;50.800;4.904;2023-08-06T12:29:49;15.80;99.90
11840;DHT22;5979;50.800;4.904;2023-08-06T12:32:15;16.00;99.90
11840;DHT22;5979;50.800;4.904;2023-08-06T12:34:42;16.10;99.90
11840;DHT22;5979;50.800;4.904;2023-08-06T12:37:08;16.20;99.90
11840;DHT22;5979;50.800;4.904;2023-08-06T12:39:37;16.30;99.90
11840;DHT22;5979;50.800;4.904;2023-08-06T12:42:04;16.30;99.90
11840;DHT22;5979;50.800;4.904;2023-08-06T12:44:30;16.40;99.90
11840;DHT22;5979;50.800;4.904;2023-08-06T12:46:56;16.30;99.90
11840;DHT22;5979;50.800;4.904;2023-08-06T12:49:22;16.30;99.90
11840;DHT22;5979;50.800;4.904;2023-08-06T12:51:52;16.30;99.90
11840;DHT22;5979;50.800;4.904;2023-08-06T12:54:18;16.30;99.90
11840;DHT22;5979;50.800;4.904;2023-08-06T12:56:45;16.20;99.90
11840;DHT22;5979;50.800;4.904;2023-08-06T12:59:11;16.30;99.90
11840;DHT22;5979;50.800;4.904;2023-08-06T13:01:39;16.30;99.90
11840;DHT22;5979;50.800;4.904;2023-08-06T13:04:05;16.30;99.90
11840;DHT22;5979;50.800;4.904;2023-08-06T13:06:31;16.30;99.90
11840;DHT22;5979;50.800;4.904;2023-08-06T13:09:02;16.30;99.90
11840;DHT22;5979;50.800;4.904;2023-08-06T13:11:29;16.30;99.90
11840;DHT22;5979;50.800;4.904;2023-08-06T13:13:56;16.40;99.90
11840;DHT22;5979;50.800;4.904;2023-08-06T13:16:22;16.30;99.90
11840;DHT22;5979;50.800;4.904;2023-08-06T13:18:47;16.30;99.90
11840;DHT22;5979;50.800;4.904;2023-08-06T13:21:13;16.30;99.90
11840;DHT22;5979;50.800;4.904;2023-08-06T13:23:39;16.30;99.90
11840;DHT22;5979;50.800;4.904;2023-08-06T13:26:04;16.20;99.90
11840;DHT22;5979;50.800;4.904;2023-08-06T13:28:30;16.20;99.90
11840;DHT22;5979;50.800;4.904;2023-08-06T13:30:56;16.20;99.90
11840;DHT22;5979;50.800;4.904;2023-08-06T13:33:21;16.10;99.90
11840;DHT22;5979;50.800;4.904;2023-08-06T13:35:47;16.10;99.90
11840;DHT22;5979;50.800;4.904;2023-08-06T13:38:13;16.00;99.90
11840;DHT22;5979;50.800;4.904;2023-08-06T13:40:38;15.80;99.90
11840;DHT22;5979;50.800;4.904;2023-08-06T13:43:04;15.80;99.90
11840;DHT22;5979;50.800;4.904;2023-08-06T13:45:29;15.80;99.90
11840;DHT22;5979;50.800;4.904;2023-08-06T13:47:56;15.90;99.90
11840;DHT22;5979;50.800;4.904;2023-08-06T13:50:22;16.00;99.90
11840;DHT22;5979;50.800;4.904;2023-08-06T13:52:51;16.10;99.90
11840;DHT22;5979;50.800;4.904;2023-08-06T13:55:18;16.00;99.90
11840;DHT22;5979;50.800;4.904;2023-08-06T13:57:44;16.00;99.90
11840;DHT22;5979;50.800;4.904;2023-08-06T14:00:10;16.10;99.90
11840;DHT22;5979;50.800;4.904;2023-08-06T14:02:36;16.10;99.90
11840;DHT22;5979;50.800;4.904;2023-08-06T14:05:01;16.00;99.90
11840;DHT22;5979;50.800;4.904;2023-08-06T14:07:27;16.00;99.90
11840;DHT22;5979;50.800;4.904;2023-08-06T14:09:53;15.90;99.90
11840;DHT22;5979;50.800;4.904;2023-08-06T14:12:18;15.80;99.90
11840;DHT22;5979;50.800;4.904;2023-08-06T14:14:44;15.70;99.90
11840;DHT22;5979;50.800;4.904;2023-08-06T14:17:10;15.60;99.90
11840;DHT22;5979;50.800;4.904;2023-08-06T14:19:35;15.50;99.90
11840;DHT22;5979;50.800;4.904;2023-08-06T14:22:01;15.40;99.90
11840;DHT22;5979;50.800;4.904;2023-08-06T14:24:27;15.30;99.90
11840;DHT22;5979;50.800;4.904;2023-08-06T14:26:52;15.30;99.90
11840;DHT22;5979;50.800;4.904;2023-08-06T14:29:18;15.20;99.90
11840;DHT22;5979;50.800;4.904;2023-08-06T14:31:44;15.30;99.90
11840;DHT22;5979;50.800;4.904;2023-08-06T14:34:09;15.20;99.90
11840;DHT22;5979;50.800;4.904;2023-08-06T14:36:35;15.20;99.90
11840;DHT22;5979;50.800;4.904;2023-08-06T14:39:01;15.10;99.90
11840;DHT22;5979;50.800;4.904;2023-08-06T14:41:27;15.20;99.90
11840;DHT22;5979;50.800;4.904;2023-08-06T14:43:52;15.10;99.90
11840;DHT22;5979;50.800;4.904;2023-08-06T14:46:19;15.10;99.90
11840;DHT22;5979;50.800;4.904;2023-08-06T14:48:44;15.10;99.90
11840;DHT22;5979;50.800;4.904;2023-08-06T14:51:10;15.00;99.90
11840;DHT22;5979;50.800;4.904;2023-08-06T14:53:36;14.90;99.90
11840;DHT22;5979;50.800;4.904;2023-08-06T14:56:01;14.90;99.90
11840;DHT22;5979;50.800;4.904;2023-08-06T14:58:27;14.90;99.90
11840;DHT22;5979;50.800;4.904;2023-08-06T15:00:53;15.00;99.90
11840;DHT22;5979;50.800;4.904;2023-08-06T15:03:18;15.10;99.90
11840;DHT22;5979;50.800;4.904;2023-08-06T15:05:47;15.10;99.90
11840;DHT22;5979;50.800;4.904;2023-08-06T15:08:12;15.20;99.90
11840;DHT22;5979;50.800;4.904;2023-08-06T15:10:38;15.30;99.90
11840;DHT22;5979;50.800;4.904;2023-08-06T15:13:04;15.40;99.90
11840;DHT22;5979;50.800;4.904;2023-08-06T15:15:30;15.40;99.90
11840;DHT22;5979;50.800;4.904;2023-08-06T15:17:55;15.50;99.90
11840;DHT22;5979;50.800;4.904;2023-08-06T15:20:23;15.50;99.90
11840;DHT22;5979;50.800;4.904;2023-08-06T15:22:49;15.50;99.90
11840;DHT22;5979;50.800;4.904;2023-08-06T15:25:14;15.50;99.90
11840;DHT22;5979;50.800;4.904;2023-08-06T15:27:40;15.50;99.90
11840;DHT22;5979;50.800;4.904;2023-08-06T15:30:06;15.50;99.90
11840;DHT22;5979;50.800;4.904;2023-08-06T15:32:32;15.40;99.90
11840;DHT22;5979;50.800;4.904;2023-08-06T15:34:58;15.40;99.90
11840;DHT22;5979;50.800;4.904;2023-08-06T15:37:24;15.30;99.90
11840;DHT22;5979;50.800;4.904;2023-08-06T15:39:50;15.20;99.90
11840;DHT22;5979;50.800;4.904;2023-08-06T15:42:16;15.20;99.90
11840;DHT22;5979;50.800;4.904;2023-08-06T15:44:42;15.20;99.90
11840;DHT22;5979;50.800;4.904;2023-08-06T15:47:08;15.20;99.90